sensor_id;sensor_type;location;lat;lon;timestamp;temperature;humidity
32865;DHT22;19219;44.500;11.188;2023-11-19T00:02:20;4.90;99.90
32865;DHT22;19219;44.500;11.188;2023-11-19T00:04:46;5.00;99.90
32865;DHT22;19219;44.500;11.188;2023-11-19T00:07:11;5.10;99.90
32865;DHT22;19219;44.500;11.188;2023-11-19T00:09:39;5.10;99.90
32865;DHT22;19219;44.500;11.188;2023-11-19T00:12:06;5.10;99.90
32865;DHT22;19219;44.500;11.188;2023-11-19T00:14:32;5.00;99.90
32865;DHT22;19219;44.500;11.188;2023-11-19T00:16:58;5.00;99.90
32865;DHT22;19219;44.500;11.188;2023-11-19T00:19:24;5.00;99.90
32865;DHT22;19219;44.500;11.188;2023-11-19T00:21:50;5.10;99.90
32865;DHT22;19219;44.500;11.188;2023-11-19T00:24:16;5.10;99.90
32865;DHT22;19219;44.500;11.188;2023-11-19T00:26:42;5.10;99.90
32865;DHT22;19219;44.500;11.188;2023-11-19T00:29:08;5.20;99.90
32865;DHT22;19219;44.500;11.188;2023-11-19T00:31:34;5.30;99.90
32865;DHT22;19219;44.500;11.188;2023-11-19T00:34:00;5.40;99.90
32865;DHT22;19219;44.500;11.188;2023-11-19T00:36:27;5.50;99.90
32865;DHT22;19219;44.500;11.188;2023-11-19T00:38:54;5.50;99.90
32865;DHT22;19219;44.500;11.188;2023-11-19T00:41:19;5.60;99.90
32865;DHT22;19219;44.500;11.188;2023-11-19T00:43:45;5.70;99.90
32865;DHT22;19219;44.500;11.188;2023-11-19T00:46:11;5.70;99.90
32865;DHT22;19219;44.500;11.188;2023-11-19T00:48:37;5.70;99.90
32865;DHT22;19219;44.500;11.188;2023-11-19T00:51:03;5.70;99.90
32865;DHT22;19219;44.500;11.188;2023-11-19T00:53:32;5.60;99.90
32865;DHT22;19219;44.500;11.188;2023-11-19T00:55:59;5.70;99.90
32865;DHT22;19219;44.500;11.188;2023-11-19T00:58:25;5.60;99.90
32865;DHT22;19219;44.500;11.188;2023-11-19T01:00:51;5.60;99.90
32865;DHT22;19219;44.500;11.188;2023-11-19T01:03:17;5.60;99.90
32865;DHT22;19219;44.500;11.188;2023-11-19T01:05:42;5.60;99.90
32865;DHT22;19219;44.500;11.188;2023-11-19T01:08:10;5.60;99.90
32865;DHT22;19219;44.500;11.188;2023-11-19T01:10:37;5.50;99.90
32865;DHT22;19219;44.500;11.188;2023-11-19T01:13:02;5.30;99.90
32865;DHT22;19219;44.500;11.188;2023-11-19T01:15:31;5.10;99.90
32865;DHT22;19219;44.500;11.188;2023-11-19T01:17:57;5.00;99.90
32865;DHT22;19219;44.500;11.188;2023-11-19T01:20:22;4.90;99.90
32865;DHT22;19219;44.500;11.188;2023-11-19T01:22:49;4.80;99.90
32865;DHT22;19219;44.500;11.188;2023-11-19T01:25:15;4.80;99.90
32865;DHT22;19219;44.500;11.188;2023-11-19T01:27:40;4.80;99.90
32865;DHT22;19219;44.500;11.188;2023-11-19T01:30:06;4.70;99.90
32865;DHT22;19219;44.500;11.188;2023-11-19T01:32:35;4.70;99.90
32865;DHT22;19219;44.500;11.188;2023-11-19T01:35:03;4.70;99.90
32865;DHT22;19219;44.500;11.188;2023-11-19T01:37:28;4.70;99.90
32865;DHT22;19219;44.500;11.188;2023-11-19T01:39:54;4.70;99.90
32865;DHT22;19219;44.500;11.188;2023-11-19T01:42:20;4.70;99.90
32865;DHT22;19219;44.500;11.188;2023-11-19T01:44:58;4.70;99.90
32865;DHT22;19219;44.500;11.188;2023-11-19T01:47:23;4.70;99.90
32865;DHT22;19219;44.500;11.188;2023-11-19T01:49:50;4.80;99.90
32865;DHT22;19219;44.500;11.188;2023-11-19T01:52:16;4.80;99.90
32865;DHT22;19219;44.500;11.188;2023-11-19T01:54:42;4.90;99.90
32865;DHT22;19219;44.500;11.188;2023-11-19T01:57:09;4.80;99.90
32865;DHT22;19219;44.500;11.188;2023-11-19T01:59:34;4.70;99.90
32865;DHT22;19219;44.500;11.188;2023-11-19T02:02:00;4.70;99.90
32865;DHT22;19219;44.500;11.188;2023-11-19T02:04:26;4.70;99.90
32865;DHT22;19219;44.500;11.188;2023-11-19T02:06:54;4.70;99.90
32865;DHT22;19219;44.500;11.188;2023-11-19T02:09:21;4.80;99.90
32865;DHT22;19219;44.500;11.188;2023-11-19T02:11:47;4.80;99.90
32865;DHT22;19219;44.500;11.188;2023-11-19T02:14:17;4.70;99.90
32865;DHT22;19219;44.500;11.188;2023-11-19T02:16:43;4.80;99.90
32865;DHT22;19219;44.500;11.188;2023-11-19T02:19:09;4.80;99.90
32865;DHT22;19219;44.500;11.188;2023-11-19T02:21:37;4.90;99.90
32865;DHT22;19219;44.500;11.188;2023-11-19T02:24:07;5.10;99.90
32865;DHT22;19219;44.500;11.188;2023-11-19T02:29:17;5.10;99.90
32865;DHT22;19219;44.500;11.188;2023-11-19T02:31:42;5.10;99.90
32865;DHT22;19219;44.500;11.188;2023-11-19T02:34:10;5.00;99.90
32865;DHT22;19219;44.500;11.188;2023-11-19T02:36:38;4.90;99.90
32865;DHT22;19219;44.500;11.188;2023-11-19T02:39:03;4.90;99.90
32865;DHT22;19219;44.500;11.188;2023-11-19T02:41:29;4.70;99.90
32865;DHT22;19219;44.500;11.188;2023-11-19T02:43:55;4.80;99.90
32865;DHT22;19219;44.500;11.188;2023-11-19T02:46:21;4.80;99.90
32865;DHT22;19219;44.500;11.188;2023-11-19T02:48:46;4.80;99.90
32865;DHT22;19219;44.500;11.188;2023-11-19T02:51:12;4.80;99.90
32865;DHT22;19219;44.500;11.188;2023-11-19T02:53:38;4.90;99.90
32865;DHT22;19219;44.500;11.188;2023-11-19T02:56:05;4.90;99.90
32865;DHT22;19219;44.500;11.188;2023-11-19T02:58:51;5.00;99.90
32865;DHT22;19219;44.500;11.188;2023-11-19T03:01:24;5.00;99.90
32865;DHT22;19219;44.500;11.188;2023-11-19T03:04:00;5.10;99.90
32865;DHT22;19219;44.500;11.188;2023-11-19T03:06:26;5.10;99.90
32865;DHT22;19219;44.500;11.188;2023-11-19T03:08:52;5.10;99.90
32865;DHT22;19219;44.500;11.188;2023-11-19T03:11:18;5.00;99.90
32865;DHT22;19219;44.500;11.188;2023-11-19T03:13:44;5.00;99.90
32865;DHT22;19219;44.500;11.188;2023-11-19T03:16:09;4.90;99.90
32865;DHT22;19219;44.500;11.188;2023-11-19T03:18:37;4.80;99.90
32865;DHT22;19219;44.500;11.188;2023-11-19T03:21:05;4.70;99.90
32865;DHT22;19219;44.500;11.188;2023-11-19T03:23:31;4.60;99.90
32865;DHT22;19219;44.500;11.188;2023-11-19T03:25:57;4.40;99.90
32865;DHT22;19219;44.500;11.188;2023-11-19T03:28:22;4.20;99.90
32865;DHT22;19219;44.500;11.188;2023-11-19T03:30:48;4.20;99.90
32865;DHT22;19219;44.500;11.188;2023-11-19T03:33:14;4.20;99.90
32865;DHT22;19219;44.500;11.188;2023-11-19T03:35:39;4.10;99.90
32865;DHT22;19219;44.500;11.188;2023-11-19T03:38:06;4.20;99.90
32865;DHT22;19219;44.500;11.188;2023-11-19T03:40:32;4.30;99.90
32865;DHT22;19219;44.500;11.188;2023-11-19T03:42:58;4.30;99.90
32865;DHT22;19219;44.500;11.188;2023-11-19T03:45:24;4.20;99.90
32865;DHT22;19219;44.500;11.188;2023-11-19T03:47:50;4.20;99.90
32865;DHT22;19219;44.500;11.188;2023-11-19T03:50:16;4.30;99.90
32865;DHT22;19219;44.500;11.188;2023-11-19T03:52:42;4.20;99.90
32865;DHT22;19219;44.500;11.188;2023-11-19T03:55:08;4.30;99.90
32865;DHT22;19219;44.500;11.188;2023-11-19T03:57:35;4.30;99.90
32865;DHT22;19219;44.500;11.188;2023-11-19T04:00:01;4.30;99.90
32865;DHT22;19219;44.500;11.188;2023-11-19T04:02:33;4.40;99.90
32865;DHT22;19219;44.500;11.188;2023-11-19T04:04:59;4.50;99.90
32865;DHT22;19219;44.500;11.188;2023-11-19T04:07:24;4.50;99.90
32865;DHT22;19219;44.500;11.188;2023-11-19T04:09:50;4.40;99.90
32865;DHT22;19219;44.500;11.188;2023-11-19T04:12:16;4.50;99.90
32865;DHT22;19219;44.500;11.188;2023-11-19T04:14:42;4.50;99.90
32865;DHT22;19219;44.500;11.188;2023-11-19T04:17:07;4.40;99.90
32865;DHT22;19219;44.500;11.188;2023-11-19T04:19:33;4.40;99.90
32865;DHT22;19219;44.500;11.188;2023-11-19T04:21:59;4.30;99.90
32865;DHT22;19219;44.500;11.188;2023-11-19T04:24:24;4.20;99.90
32865;DHT22;19219;44.500;11.188;2023-11-19T04:26:50;4.10;99.90
32865;DHT22;19219;44.500;11.188;2023-11-19T04:29:16;4.00;99.90
32865;DHT22;19219;44.500;11.188;2023-11-19T04:31:43;3.90;99.90
32865;DHT22;19219;44.500;11.188;2023-11-19T04:34:12;3.90;99.90
32865;DHT22;19219;44.500;11.188;2023-11-19T04:36:38;3.90;99.90
32865;DHT22;19219;44.500;11.188;2023-11-19T04:39:04;3.90;99.90
32865;DHT22;19219;44.500;11.188;2023-11-19T04:41:48;3.90;99.90
32865;DHT22;19219;44.500;11.188;2023-11-19T04:44:15;3.90;99.90
32865;DHT22;19219;44.500;11.188;2023-11-19T04:46:41;4.00;99.90
32865;DHT22;19219;44.500;11.188;2023-11-19T04:49:09;4.00;99.90
32865;DHT22;19219;44.500;11.188;2023-11-19T04:51:44;4.00;99.90
32865;DHT22;19219;44.500;11.188;2023-11-19T04:54:10;4.10;99.90
32865;DHT22;19219;44.500;11.188;2023-11-19T04:56:36;4.10;99.90
32865;DHT22;19219;44.500;11.188;2023-11-19T04:59:05;4.20;99.90
32865;DHT22;19219;44.500;11.188;2023-11-19T05:01:34;4.20;99.90
32865;DHT22;19219;44.500;11.188;2023-11-19T05:04:01;4.20;99.90
32865;DHT22;19219;44.500;11.188;2023-11-19T05:06:30;4.10;99.90
32865;DHT22;19219;44.500;11.188;2023-11-19T05:08:58;4.10;99.90
32865;DHT22;19219;44.500;11.188;2023-11-19T05:11:24;4.10;99.90
32865;DHT22;19219;44.500;11.188;2023-11-19T05:13:49;4.10;99.90
32865;DHT22;19219;44.500;11.188;2023-11-19T05:16:16;4.10;99.90
32865;DHT22;19219;44.500;11.188;2023-11-19T05:18:43;4.10;99.90
32865;DHT22;19219;44.500;11.188;2023-11-19T05:21:08;4.20;99.90
32865;DHT22;19219;44.500;11.188;2023-11-19T05:23:34;4.30;99.90
32865;DHT22;19219;44.500;11.188;2023-11-19T05:26:03;4.30;99.90
32865;DHT22;19219;44.500;11.188;2023-11-19T05:28:29;4.40;99.90
32865;DHT22;19219;44.500;11.188;2023-11-19T05:30:55;4.40;99.90
32865;DHT22;19219;44.500;11.188;2023-11-19T05:33:21;4.60;99.90
32865;DHT22;19219;44.500;11.188;2023-11-19T05:35:47;4.60;99.90
32865;DHT22;19219;44.500;11.188;2023-11-19T05:38:13;4.60;99.90
32865;DHT22;19219;44.500;11.188;2023-11-19T05:40:38;4.60;99.90
32865;DHT22;19219;44.500;11.188;2023-11-19T05:43:05;4.60;99.90
32865;DHT22;19219;44.500;11.188;2023-11-19T05:45:32;4.50;99.90
32865;DHT22;19219;44.500;11.188;2023-11-19T05:47:58;4.50;99.90
32865;DHT22;19219;44.500;11.188;2023-11-19T05:50:23;4.40;99.90
32865;DHT22;19219;44.500;11.188;2023-11-19T05:52:49;4.30;99.90
32865;DHT22;19219;44.500;11.188;2023-11-19T05:55:15;4.20;99.90
32865;DHT22;19219;44.500;11.188;2023-11-19T05:57:41;4.20;99.90
32865;DHT22;19219;44.500;11.188;2023-11-19T06:00:08;4.00;99.90
32865;DHT22;19219;44.500;11.188;2023-11-19T06:02:34;4.10;99.90
32865;DHT22;19219;44.500;11.188;2023-11-19T06:05:00;4.10;99.90
32865;DHT22;19219;44.500;11.188;2023-11-19T06:07:27;4.00;99.90
32865;DHT22;19219;44.500;11.188;2023-11-19T06:09:53;3.90;99.90
32865;DHT22;19219;44.500;11.188;2023-11-19T06:12:19;3.90;99.90
32865;DHT22;19219;44.500;11.188;2023-11-19T06:14:44;3.90;99.90
32865;DHT22;19219;44.500;11.188;2023-11-19T06:17:10;3.90;99.90
32865;DHT22;19219;44.500;11.188;2023-11-19T06:19:37;3.90;99.90
32865;DHT22;19219;44.500;11.188;2023-11-19T06:22:03;3.90;99.90
32865;DHT22;19219;44.500;11.188;2023-11-19T06:24:29;3.80;99.90
32865;DHT22;19219;44.500;11.188;2023-11-19T06:26:55;3.80;99.90
32865;DHT22;19219;44.500;11.188;2023-11-19T06:29:21;3.80;99.90
32865;DHT22;19219;44.500;11.188;2023-11-19T06:31:46;3.70;99.90
32865;DHT22;19219;44.500;11.188;2023-11-19T06:34:14;3.80;99.90
32865;DHT22;19219;44.500;11.188;2023-11-19T06:36:40;3.80;99.90
32865;DHT22;19219;44.500;11.188;2023-11-19T06:39:06;3.90;99.90
32865;DHT22;19219;44.500;11.188;2023-11-19T06:41:31;3.90;99.90
32865;DHT22;19219;44.500;11.188;2023-11-19T06:43:57;3.90;99.90
32865;DHT22;19219;44.500;11.188;2023-11-19T06:46:23;3.90;99.90
32865;DHT22;19219;44.500;11.188;2023-11-19T06:48:49;4.00;99.90
32865;DHT22;19219;44.500;11.188;2023-11-19T06:51:15;4.00;99.90
32865;DHT22;19219;44.500;11.188;2023-11-19T06:53:42;4.10;99.90
32865;DHT22;19219;44.500;11.188;2023-11-19T06:56:24;4.10;99.90
32865;DHT22;19219;44.500;11.188;2023-11-19T06:58:51;4.10;99.90
32865;DHT22;19219;44.500;11.188;2023-11-19T07:01:17;4.20;99.90
32865;DHT22;19219;44.500;11.188;2023-11-19T07:03:45;4.30;99.90
32865;DHT22;19219;44.500;11.188;2023-11-19T07:06:11;4.50;99.90
32865;DHT22;19219;44.500;11.188;2023-11-19T07:08:43;4.50;99.90
32865;DHT22;19219;44.500;11.188;2023-11-19T07:11:10;4.60;99.90
32865;DHT22;19219;44.500;11.188;2023-11-19T07:13:37;4.70;99.90
32865;DHT22;19219;44.500;11.188;2023-11-19T07:16:03;4.80;99.90
32865;DHT22;19219;44.500;11.188;2023-11-19T07:18:29;4.90;99.90
32865;DHT22;19219;44.500;11.188;2023-11-19T07:20:55;5.00;99.90
32865;DHT22;19219;44.500;11.188;2023-11-19T07:23:21;5.10;99.90
32865;DHT22;19219;44.500;11.188;2023-11-19T07:25:47;5.10;99.90
32865;DHT22;19219;44.500;11.188;2023-11-19T07:28:13;5.20;99.90
32865;DHT22;19219;44.500;11.188;2023-11-19T07:30:39;5.40;99.90
32865;DHT22;19219;44.500;11.188;2023-11-19T07:33:05;5.60;99.90
32865;DHT22;19219;44.500;11.188;2023-11-19T07:35:32;5.80;99.90
32865;DHT22;19219;44.500;11.188;2023-11-19T07:37:58;6.00;99.90
32865;DHT22;19219;44.500;11.188;2023-11-19T07:40:24;6.20;99.90
32865;DHT22;19219;44.500;11.188;2023-11-19T07:42:50;6.50;99.90
32865;DHT22;19219;44.500;11.188;2023-11-19T07:45:16;6.70;99.90
32865;DHT22;19219;44.500;11.188;2023-11-19T07:47:44;6.90;99.90
32865;DHT22;19219;44.500;11.188;2023-11-19T07:50:16;7.10;99.90
32865;DHT22;19219;44.500;11.188;2023-11-19T07:52:45;7.30;99.90
32865;DHT22;19219;44.500;11.188;2023-11-19T07:55:15;7.60;99.90
32865;DHT22;19219;44.500;11.188;2023-11-19T07:57:42;8.30;99.90
32865;DHT22;19219;44.500;11.188;2023-11-19T08:00:08;9.50;99.90
32865;DHT22;19219;44.500;11.188;2023-11-19T08:02:39;11.50;99.90
32865;DHT22;19219;44.500;11.188;2023-11-19T08:05:08;13.50;99.90
32865;DHT22;19219;44.500;11.188;2023-11-19T08:07:43;15.00;99.90
32865;DHT22;19219;44.500;11.188;2023-11-19T08:10:17;15.40;99.90
32865;DHT22;19219;44.500;11.188;2023-11-19T08:12:43;16.50;97.60
32865;DHT22;19219;44.500;11.188;2023-11-19T08:15:13;17.70;93.20
32865;DHT22;19219;44.500;11.188;2023-11-19T08:17:39;18.50;89.40
32865;DHT22;19219;44.500;11.188;2023-11-19T08:20:08;19.00;83.90
32865;DHT22;19219;44.500;11.188;2023-11-19T08:22:37;19.80;80.00
32865;DHT22;19219;44.500;11.188;2023-11-19T08:25:05;20.60;75.90
32865;DHT22;19219;44.500;11.188;2023-11-19T08:27:30;21.00;72.50
32865;DHT22;19219;44.500;11.188;2023-11-19T08:29:56;21.30;70.90
32865;DHT22;19219;44.500;11.188;2023-11-19T08:32:23;21.70;67.00
32865;DHT22;19219;44.500;11.188;2023-11-19T08:34:50;21.70;63.70
32865;DHT22;19219;44.500;11.188;2023-11-19T08:37:16;21.70;64.40
32865;DHT22;19219;44.500;11.188;2023-11-19T08:39:43;22.10;63.80
32865;DHT22;19219;44.500;11.188;2023-11-19T08:42:09;22.40;62.00
32865;DHT22;19219;44.500;11.188;2023-11-19T08:44:35;22.20;61.20
32865;DHT22;19219;44.500;11.188;2023-11-19T08:47:00;22.20;61.40
32865;DHT22;19219;44.500;11.188;2023-11-19T08:49:26;22.70;59.80
32865;DHT22;19219;44.500;11.188;2023-11-19T08:51:52;21.90;59.30
32865;DHT22;19219;44.500;11.188;2023-11-19T08:54:17;22.20;58.50
32865;DHT22;19219;44.500;11.188;2023-11-19T08:56:45;22.50;57.30
32865;DHT22;19219;44.500;11.188;2023-11-19T08:59:11;22.50;56.40
32865;DHT22;19219;44.500;11.188;2023-11-19T09:01:36;22.60;55.40
32865;DHT22;19219;44.500;11.188;2023-11-19T09:04:02;23.00;54.50
32865;DHT22;19219;44.500;11.188;2023-11-19T09:06:28;22.90;53.50
32865;DHT22;19219;44.500;11.188;2023-11-19T09:08:54;23.10;53.50
32865;DHT22;19219;44.500;11.188;2023-11-19T09:11:23;23.40;53.70
32865;DHT22;19219;44.500;11.188;2023-11-19T09:13:49;23.40;52.20
32865;DHT22;19219;44.500;11.188;2023-11-19T09:16:15;23.80;50.30
32865;DHT22;19219;44.500;11.188;2023-11-19T09:18:41;24.10;48.80
32865;DHT22;19219;44.500;11.188;2023-11-19T09:21:06;24.50;48.80
32865;DHT22;19219;44.500;11.188;2023-11-19T09:23:32;24.40;49.40
32865;DHT22;19219;44.500;11.188;2023-11-19T09:26:04;24.60;48.50
32865;DHT22;19219;44.500;11.188;2023-11-19T09:28:31;24.50;48.30
32865;DHT22;19219;44.500;11.188;2023-11-19T09:30:56;24.70;48.60
32865;DHT22;19219;44.500;11.188;2023-11-19T09:33:22;24.70;47.60
32865;DHT22;19219;44.500;11.188;2023-11-19T09:35:47;24.80;47.30
32865;DHT22;19219;44.500;11.188;2023-11-19T09:38:15;24.80;46.70
32865;DHT22;19219;44.500;11.188;2023-11-19T09:40:40;25.00;46.40
32865;DHT22;19219;44.500;11.188;2023-11-19T09:43:07;24.60;45.20
32865;DHT22;19219;44.500;11.188;2023-11-19T09:45:47;24.30;44.90
32865;DHT22;19219;44.500;11.188;2023-11-19T09:48:16;24.20;45.50
32865;DHT22;19219;44.500;11.188;2023-11-19T09:50:42;24.30;44.30
32865;DHT22;19219;44.500;11.188;2023-11-19T09:53:08;23.80;45.90
32865;DHT22;19219;44.500;11.188;2023-11-19T09:55:34;23.90;44.90
32865;DHT22;19219;44.500;11.188;2023-11-19T09:58:01;23.70;45.20
32865;DHT22;19219;44.500;11.188;2023-11-19T10:00:27;23.80;45.20
32865;DHT22;19219;44.500;11.188;2023-11-19T10:02:54;23.70;44.40
32865;DHT22;19219;44.500;11.188;2023-11-19T10:05:20;23.50;43.90
32865;DHT22;19219;44.500;11.188;2023-11-19T10:07:47;23.50;43.90
32865;DHT22;19219;44.500;11.188;2023-11-19T10:10:13;23.60;44.20
32865;DHT22;19219;44.500;11.188;2023-11-19T10:12:44;23.60;44.20
32865;DHT22;19219;44.500;11.188;2023-11-19T10:15:19;23.80;43.90
32865;DHT22;19219;44.500;11.188;2023-11-19T10:17:45;24.30;44.30
32865;DHT22;19219;44.500;11.188;2023-11-19T10:20:11;24.80;43.40
32865;DHT22;19219;44.500;11.188;2023-11-19T10:22:37;24.80;41.70
32865;DHT22;19219;44.500;11.188;2023-11-19T10:25:04;24.60;42.00
32865;DHT22;19219;44.500;11.188;2023-11-19T10:27:30;24.90;42.50
32865;DHT22;19219;44.500;11.188;2023-11-19T10:29:59;24.60;41.50
32865;DHT22;19219;44.500;11.188;2023-11-19T10:32:25;24.30;40.70
32865;DHT22;19219;44.500;11.188;2023-11-19T10:34:51;24.60;40.20
32865;DHT22;19219;44.500;11.188;2023-11-19T10:37:29;24.40;41.20
32865;DHT22;19219;44.500;11.188;2023-11-19T10:39:57;24.10;38.70
32865;DHT22;19219;44.500;11.188;2023-11-19T10:42:23;24.10;39.40
32865;DHT22;19219;44.500;11.188;2023-11-19T10:44:49;24.00;39.70
32865;DHT22;19219;44.500;11.188;2023-11-19T10:47:15;23.80;41.00
32865;DHT22;19219;44.500;11.188;2023-11-19T10:49:44;23.80;41.30
32865;DHT22;19219;44.500;11.188;2023-11-19T10:52:12;23.70;40.70
32865;DHT22;19219;44.500;11.188;2023-11-19T10:54:44;23.20;41.60
32865;DHT22;19219;44.500;11.188;2023-11-19T10:57:12;22.50;41.60
32865;DHT22;19219;44.500;11.188;2023-11-19T10:59:44;22.00;42.10
32865;DHT22;19219;44.500;11.188;2023-11-19T11:02:14;21.00;42.80
32865;DHT22;19219;44.500;11.188;2023-11-19T11:04:44;20.40;43.60
32865;DHT22;19219;44.500;11.188;2023-11-19T11:07:14;20.00;44.00
32865;DHT22;19219;44.500;11.188;2023-11-19T11:09:41;19.30;44.00
32865;DHT22;19219;44.500;11.188;2023-11-19T11:12:09;19.00;45.20
32865;DHT22;19219;44.500;11.188;2023-11-19T11:14:38;19.00;44.50
32865;DHT22;19219;44.500;11.188;2023-11-19T11:17:05;18.70;45.40
32865;DHT22;19219;44.500;11.188;2023-11-19T11:19:33;18.80;45.60
32865;DHT22;19219;44.500;11.188;2023-11-19T11:22:00;18.60;46.50
32865;DHT22;19219;44.500;11.188;2023-11-19T11:30:32;18.70;45.60
32865;DHT22;19219;44.500;11.188;2023-11-19T11:36:03;18.50;46.70
32865;DHT22;19219;44.500;11.188;2023-11-19T11:38:36;18.60;46.60
32865;DHT22;19219;44.500;11.188;2023-11-19T11:41:19;18.70;46.10
32865;DHT22;19219;44.500;11.188;2023-11-19T11:43:52;18.60;45.00
32865;DHT22;19219;44.500;11.188;2023-11-19T11:49:06;18.50;46.10
32865;DHT22;19219;44.500;11.188;2023-11-19T11:57:06;18.30;44.30
32865;DHT22;19219;44.500;11.188;2023-11-19T11:59:40;18.00;45.00
32865;DHT22;19219;44.500;11.188;2023-11-19T12:02:09;17.70;44.40
32865;DHT22;19219;44.500;11.188;2023-11-19T12:04:39;17.70;44.50
32865;DHT22;19219;44.500;11.188;2023-11-19T12:07:12;17.70;45.70
32865;DHT22;19219;44.500;11.188;2023-11-19T12:09:50;17.60;44.50
32865;DHT22;19219;44.500;11.188;2023-11-19T12:15:05;17.50;44.40
32865;DHT22;19219;44.500;11.188;2023-11-19T12:20:00;17.40;46.70
32865;DHT22;19219;44.500;11.188;2023-11-19T12:22:26;17.40;47.00
32865;DHT22;19219;44.500;11.188;2023-11-19T12:24:56;17.40;48.20
32865;DHT22;19219;44.500;11.188;2023-11-19T12:27:27;17.30;47.60
32865;DHT22;19219;44.500;11.188;2023-11-19T12:29:56;17.40;48.00
32865;DHT22;19219;44.500;11.188;2023-11-19T12:32:22;17.40;48.40
32865;DHT22;19219;44.500;11.188;2023-11-19T12:34:48;17.30;47.50
32865;DHT22;19219;44.500;11.188;2023-11-19T12:37:14;17.20;47.60
32865;DHT22;19219;44.500;11.188;2023-11-19T12:39:40;17.10;47.90
32865;DHT22;19219;44.500;11.188;2023-11-19T12:42:06;17.10;48.30
32865;DHT22;19219;44.500;11.188;2023-11-19T12:44:32;17.20;48.70
32865;DHT22;19219;44.500;11.188;2023-11-19T12:47:06;17.20;49.10
32865;DHT22;19219;44.500;11.188;2023-11-19T12:49:35;17.20;48.70
32865;DHT22;19219;44.500;11.188;2023-11-19T12:52:01;17.20;48.60
32865;DHT22;19219;44.500;11.188;2023-11-19T12:54:36;17.20;49.30
32865;DHT22;19219;44.500;11.188;2023-11-19T12:57:04;17.20;50.00
32865;DHT22;19219;44.500;11.188;2023-11-19T12:59:31;17.20;49.90
32865;DHT22;19219;44.500;11.188;2023-11-19T13:01:57;17.30;50.10
32865;DHT22;19219;44.500;11.188;2023-11-19T13:04:27;17.30;50.60
32865;DHT22;19219;44.500;11.188;2023-11-19T13:06:54;17.20;51.60
32865;DHT22;19219;44.500;11.188;2023-11-19T13:09:27;17.20;52.20
32865;DHT22;19219;44.500;11.188;2023-11-19T13:11:55;17.30;51.20
32865;DHT22;19219;44.500;11.188;2023-11-19T13:14:22;17.30;50.50
32865;DHT22;19219;44.500;11.188;2023-11-19T13:16:48;17.20;50.50
32865;DHT22;19219;44.500;11.188;2023-11-19T13:19:16;17.10;51.00
32865;DHT22;19219;44.500;11.188;2023-11-19T13:21:44;17.20;51.20
32865;DHT22;19219;44.500;11.188;2023-11-19T13:24:13;17.00;52.30
32865;DHT22;19219;44.500;11.188;2023-11-19T13:26:40;16.90;51.50
32865;DHT22;19219;44.500;11.188;2023-11-19T13:29:05;17.00;52.00
32865;DHT22;19219;44.500;11.188;2023-11-19T13:31:31;17.10;52.80
32865;DHT22;19219;44.500;11.188;2023-11-19T13:33:59;17.20;52.30
32865;DHT22;19219;44.500;11.188;2023-11-19T13:36:24;17.20;52.00
32865;DHT22;19219;44.500;11.188;2023-11-19T13:38:51;17.40;52.10
32865;DHT22;19219;44.500;11.188;2023-11-19T13:41:17;17.40;52.20
32865;DHT22;19219;44.500;11.188;2023-11-19T13:43:43;17.30;52.40
32865;DHT22;19219;44.500;11.188;2023-11-19T13:46:09;17.30;52.90
32865;DHT22;19219;44.500;11.188;2023-11-19T13:48:38;17.30;53.20
32865;DHT22;19219;44.500;11.188;2023-11-19T13:51:04;17.30;53.30
32865;DHT22;19219;44.500;11.188;2023-11-19T13:53:29;17.20;52.80
32865;DHT22;19219;44.500;11.188;2023-11-19T13:55:55;17.20;53.60
32865;DHT22;19219;44.500;11.188;2023-11-19T13:58:21;17.20;54.20
32865;DHT22;19219;44.500;11.188;2023-11-19T14:00:46;17.20;54.60
32865;DHT22;19219;44.500;11.188;2023-11-19T14:03:12;17.20;55.70
32865;DHT22;19219;44.500;11.188;2023-11-19T14:05:39;17.20;55.80
32865;DHT22;19219;44.500;11.188;2023-11-19T14:08:08;17.30;56.80
32865;DHT22;19219;44.500;11.188;2023-11-19T14:10:40;17.10;56.10
32865;DHT22;19219;44.500;11.188;2023-11-19T14:13:09;17.10;56.80
32865;DHT22;19219;44.500;11.188;2023-11-19T14:15:35;17.00;56.30
32865;DHT22;19219;44.500;11.188;2023-11-19T14:18:01;16.90;57.00
32865;DHT22;19219;44.500;11.188;2023-11-19T14:20:28;16.90;58.20
32865;DHT22;19219;44.500;11.188;2023-11-19T14:22:54;16.90;58.70
32865;DHT22;19219;44.500;11.188;2023-11-19T14:25:22;16.90;58.40
32865;DHT22;19219;44.500;11.188;2023-11-19T14:27:49;16.80;59.10
32865;DHT22;19219;44.500;11.188;2023-11-19T14:30:14;16.80;59.00
32865;DHT22;19219;44.500;11.188;2023-11-19T14:32:42;16.80;59.20
32865;DHT22;19219;44.500;11.188;2023-11-19T14:35:09;16.80;58.90
32865;DHT22;19219;44.500;11.188;2023-11-19T14:37:35;16.70;60.20
32865;DHT22;19219;44.500;11.188;2023-11-19T14:40:01;16.70;59.70
32865;DHT22;19219;44.500;11.188;2023-11-19T14:42:29;16.70;59.80
32865;DHT22;19219;44.500;11.188;2023-11-19T14:44:55;16.60;60.70
32865;DHT22;19219;44.500;11.188;2023-11-19T14:47:21;16.60;60.60
32865;DHT22;19219;44.500;11.188;2023-11-19T14:49:47;16.50;62.10
32865;DHT22;19219;44.500;11.188;2023-11-19T14:52:13;16.50;62.10
32865;DHT22;19219;44.500;11.188;2023-11-19T14:54:39;16.40;63.10
32865;DHT22;19219;44.500;11.188;2023-11-19T14:57:05;16.40;63.50
32865;DHT22;19219;44.500;11.188;2023-11-19T14:59:33;16.20;64.90
32865;DHT22;19219;44.500;11.188;2023-11-19T15:01:59;16.20;65.80
32865;DHT22;19219;44.500;11.188;2023-11-19T15:04:26;16.00;67.20
32865;DHT22;19219;44.500;11.188;2023-11-19T15:06:52;15.90;69.10
32865;DHT22;19219;44.500;11.188;2023-11-19T15:09:18;15.90;69.70
32865;DHT22;19219;44.500;11.188;2023-11-19T15:11:44;15.80;70.60
32865;DHT22;19219;44.500;11.188;2023-11-19T15:14:13;15.70;71.70
32865;DHT22;19219;44.500;11.188;2023-11-19T15:16:44;15.50;73.30
32865;DHT22;19219;44.500;11.188;2023-11-19T15:19:10;15.40;74.20
32865;DHT22;19219;44.500;11.188;2023-11-19T15:21:38;15.30;75.10
32865;DHT22;19219;44.500;11.188;2023-11-19T15:24:04;15.30;76.70
32865;DHT22;19219;44.500;11.188;2023-11-19T15:26:30;15.20;79.00
32865;DHT22;19219;44.500;11.188;2023-11-19T15:28:56;15.10;80.60
32865;DHT22;19219;44.500;11.188;2023-11-19T15:31:23;14.90;84.40
32865;DHT22;19219;44.500;11.188;2023-11-19T15:33:49;14.60;90.30
32865;DHT22;19219;44.500;11.188;2023-11-19T15:36:14;14.30;92.60
32865;DHT22;19219;44.500;11.188;2023-11-19T15:38:40;13.90;95.50
32865;DHT22;19219;44.500;11.188;2023-11-19T15:41:06;13.60;98.80
32865;DHT22;19219;44.500;11.188;2023-11-19T15:43:33;13.20;99.90
32865;DHT22;19219;44.500;11.188;2023-11-19T15:45:59;12.90;99.90
32865;DHT22;19219;44.500;11.188;2023-11-19T15:48:24;12.90;99.90